Time;durP1;ratioP1;P1;durP2;ratioP2;P2;SDS_P1;SDS_P2;PMS_P1;PMS_P2;Temp;Humidity;BMP_temperature;BMP_pressure;BME280_temperature;BME280_humidity;BME280_pressure;Samples;Min_cycle;Max_cycle;Signal;HPM_P1;HPM_P2
2022/05/16 00:02:03;;;;;;;23.55;12.10;;;;;;;12.82;66.24;100701.87;1861594;77;20912;-90
2022/05/16 00:04:32;;;;;;;27.82;13.90;;;;;;;12.81;66.23;100693.63;1861819;77;20916;-90
2022/05/16 00:06:58;;;;;;;23.67;11.65;;;;;;;12.79;66.24;100697.66;1861990;77;20949;-90
2022/05/16 00:09:25;;;;;;;26.35;14.55;;;;;;;12.79;66.40;100696.35;1861705;77;21227;-89
2022/05/16 00:11:52;;;;;;;22.98;11.53;;;;;;;12.79;66.69;100692.41;1861535;77;20862;-90
2022/05/16 00:14:19;;;;;;;23.10;12.90;;;;;;;12.81;66.62;100694.45;1862012;77;20948;-90
2022/05/16 00:16:48;;;;;;;21.62;11.90;;;;;;;12.83;66.63;100700.94;1860236;76;21391;-89
2022/05/16 00:19:14;;;;;;;26.95;11.38;;;;;;;12.84;66.88;100702.61;1858287;77;21453;-90
2022/05/16 00:21:42;;;;;;;23.83;13.10;;;;;;;12.84;66.85;100698.66;1858383;77;21124;-89
2022/05/16 00:24:08;;;;;;;26.80;12.10;;;;;;;12.84;66.46;100693.40;1859459;77;20874;-87
2022/05/16 00:26:35;;;;;;;33.40;15.08;;;;;;;12.82;66.39;100695.30;1860438;76;21390;-87
2022/05/16 00:29:02;;;;;;;28.67;15.28;;;;;;;12.79;66.37;100695.52;1859101;77;20882;-90
2022/05/16 00:31:29;;;;;;;30.02;17.80;;;;;;;12.73;66.13;100696.76;1858762;77;20865;-90
2022/05/16 00:33:55;;;;;;;35.88;17.50;;;;;;;12.68;66.05;100697.55;1858728;77;21354;-90
2022/05/16 00:36:24;;;;;;;33.20;18.80;;;;;;;12.62;66.03;100703.22;1858757;77;20941;-90
2022/05/16 00:38:54;;;;;;;33.30;18.48;;;;;;;12.58;66.11;100699.97;1858350;77;21311;-89
2022/05/16 00:41:19;;;;;;;32.28;16.30;;;;;;;12.52;66.04;100700.38;1858186;76;21340;-90
2022/05/16 00:43:55;;;;;;;29.07;16.17;;;;;;;12.50;66.18;100692.22;1858792;77;20873;-88
2022/05/16 00:46:23;;;;;;;29.27;17.42;;;;;;;12.46;66.23;100692.89;1859972;77;21132;-87
2022/05/16 00:48:50;;;;;;;30.57;18.10;;;;;;;12.44;66.58;100691.66;1830060;76;21020;-88
2022/05/16 00:51:26;;;;;;;35.35;18.80;;;;;;;12.42;66.36;100692.23;1860121;77;20890;-86
2022/05/16 00:53:56;;;;;;;34.23;18.65;;;;;;;12.41;66.38;100696.31;1859846;77;20845;-87
2022/05/16 00:56:24;;;;;;;36.45;18.48;;;;;;;12.39;66.20;100691.62;1859836;77;20885;-88
2022/05/16 00:58:53;;;;;;;39.48;20.77;;;;;;;12.37;66.36;100687.77;1859477;77;21143;-86
2022/05/16 01:06:52;;;;;;;37.83;18.77;;;;;;;12.30;66.23;100692.23;1858578;76;20885;-91
2022/05/16 01:09:18;;;;;;;37.28;18.85;;;;;;;12.27;65.91;100684.05;1858448;77;20952;-89
2022/05/16 01:11:46;;;;;;;32.58;18.73;;;;;;;12.25;65.97;100688.59;1858392;77;21238;-90
2022/05/16 01:14:44;;;;;;;33.35;18.60;;;;;;;12.23;66.16;100694.42;1858782;77;20858;-87
2022/05/16 01:17:12;;;;;;;36.30;17.48;;;;;;;12.22;66.03;100705.87;1842781;77;20977;-86
2022/05/16 01:19:39;;;;;;;30.27;17.00;;;;;;;12.18;65.90;100703.06;1820344;77;20925;-90
2022/05/16 01:22:20;;;;;;;33.30;15.70;;;;;;;12.16;66.03;100707.58;1820063;78;20973;-90
2022/05/16 01:24:47;;;;;;;27.27;13.68;;;;;;;12.15;65.98;100712.47;1819436;79;21261;-90
2022/05/16 01:27:16;;;;;;;24.60;12.93;;;;;;;12.14;66.08;100706.83;1818785;79;21009;-91
2022/05/16 01:29:43;;;;;;;27.22;13.25;;;;;;;12.14;66.12;100706.83;1819492;78;21060;-89
2022/05/16 01:32:10;;;;;;;28.35;12.33;;;;;;;12.15;66.05;100710.68;1818955;79;21424;-90
2022/05/16 01:34:38;;;;;;;27.82;13.68;;;;;;;12.18;66.12;100705.69;1818776;77;20978;-90
2022/05/16 01:37:05;;;;;;;27.98;15.03;;;;;;;12.19;66.00;100710.86;1819044;79;21153;-89
2022/05/16 01:39:32;;;;;;;32.25;14.30;;;;;;;12.19;65.92;100711.34;1818856;79;20883;-92
2022/05/16 01:41:59;;;;;;;23.57;13.98;;;;;;;12.19;65.80;100716.12;1818900;77;20914;-90
2022/05/16 01:44:26;;;;;;;29.48;16.40;;;;;;;12.15;65.78;100717.73;1819140;77;20931;-90
2022/05/16 01:46:53;;;;;;;28.75;15.30;;;;;;;12.09;65.67;100722.06;1818802;77;20863;-90
2022/05/16 01:49:21;;;;;;;26.45;15.53;;;;;;;12.03;65.69;100717.59;1818747;77;20816;-91
2022/05/16 01:51:49;;;;;;;25.40;16.62;;;;;;;11.98;65.71;100722.30;1818827;78;20906;-91
2022/05/16 01:54:17;;;;;;;36.23;17.77;;;;;;;11.92;65.74;100733.20;1818870;77;20918;-90
2022/05/16 01:56:46;;;;;;;34.08;17.40;;;;;;;11.87;66.04;100736.55;1819030;77;20899;-89
2022/05/16 01:59:13;;;;;;;37.15;17.00;;;;;;;11.84;66.07;100734.12;1820035;77;20875;-89
2022/05/16 02:01:41;;;;;;;29.72;16.32;;;;;;;11.84;66.05;100731.49;1819241;77;21250;-90
2022/05/16 02:04:07;;;;;;;34.92;16.70;;;;;;;11.82;66.11;100738.15;1818731;77;20974;-90
2022/05/16 02:06:34;;;;;;;29.63;15.20;;;;;;;11.84;66.18;100742.00;1819411;79;20986;-88
2022/05/16 02:09:01;;;;;;;26.40;14.38;;;;;;;11.86;66.67;100748.01;1819837;77;20882;-88
2022/05/16 02:11:28;;;;;;;22.27;12.73;;;;;;;11.88;66.83;100744.02;1819371;77;20923;-90
2022/05/16 02:13:55;;;;;;;26.17;12.18;;;;;;;11.91;67.15;100750.38;1819198;77;21155;-90
2022/05/16 02:16:22;;;;;;;24.75;11.45;;;;;;;11.95;67.12;100751.87;1818861;77;20870;-90
2022/05/16 02:18:48;;;;;;;22.95;11.85;;;;;;;11.98;67.08;100752.98;1854234;77;20917;-89
2022/05/16 02:26:47;;;;;;;13.43;8.68;;;;;;;12.02;67.01;100757.94;1858240;77;21257;-90
2022/05/16 02:29:16;;;;;;;21.77;9.75;;;;;;;12.01;67.21;100768.57;1801446;77;20940;-89
2022/05/16 02:31:43;;;;;;;18.05;8.35;;;;;;;11.99;67.49;100773.08;1858563;77;20901;-89
2022/05/16 02:34:11;;;;;;;16.25;8.03;;;;;;;11.96;67.32;100774.56;1859257;77;20978;-88
2022/05/16 02:36:38;;;;;;;14.30;6.15;;;;;;;11.93;67.24;100778.72;1859217;77;20975;-89
2022/05/16 02:39:05;;;;;;;11.45;5.35;;;;;;;11.90;67.41;100778.45;1858722;76;21137;-89
2022/05/16 02:41:32;;;;;;;12.85;5.87;;;;;;;11.89;67.16;100778.53;1858898;77;20950;-90
2022/05/16 02:43:59;;;;;;;9.23;5.53;;;;;;;11.89;67.39;100784.62;1858655;77;20837;-90
2022/05/16 02:46:26;;;;;;;11.28;6.47;;;;;;;11.90;67.34;100783.70;1858406;77;20976;-90
2022/05/16 02:48:53;;;;;;;9.33;4.42;;;;;;;11.91;67.64;100792.42;1858909;77;21375;-90
2022/05/16 02:51:21;;;;;;;11.15;5.15;;;;;;;11.95;67.49;100794.76;1827716;77;21336;-92
2022/05/16 02:53:50;;;;;;;7.85;4.37;;;;;;;11.97;67.16;100795.51;1858402;77;21080;-91
2022/05/16 02:56:21;;;;;;;9.95;4.15;;;;;;;12.00;66.81;100803.19;1858455;76;20893;-90
2022/05/16 02:58:49;;;;;;;11.95;4.12;;;;;;;12.05;66.74;100802.06;1858698;77;20862;-87
2022/05/16 03:01:16;;;;;;;7.65;3.92;;;;;;;12.06;66.49;100803.28;1859154;77;20963;-87
2022/05/16 03:03:43;;;;;;;9.98;4.03;;;;;;;12.08;66.46;100811.09;1860491;77;21171;-90
2022/05/16 03:06:10;;;;;;;6.12;3.15;;;;;;;12.09;66.59;100811.44;1861277;77;20830;-94
2022/05/16 03:08:39;;;;;;;9.28;3.50;;;;;;;12.08;66.26;100814.55;1860640;77;20881;-91
2022/05/16 03:11:06;;;;;;;4.78;2.75;;;;;;;12.09;66.41;100821.95;1862113;75;21082;-91
2022/05/16 03:13:33;;;;;;;6.30;2.27;;;;;;;12.09;66.12;100821.48;1859143;77;20869;-92
2022/05/16 03:16:00;;;;;;;8.70;2.67;;;;;;;12.11;66.15;100826.65;1858922;77;21339;-93
2022/05/16 03:18:31;;;;;;;5.62;3.05;;;;;;;12.11;66.22;100831.91;1858714;76;20921;-92
2022/05/16 03:20:58;;;;;;;3.47;2.60;;;;;;;12.14;65.94;100838.28;1858597;77;20952;-92
2022/05/16 03:23:26;;;;;;;6.40;2.15;;;;;;;12.18;66.11;100839.33;1858656;77;21070;-94
2022/05/16 03:25:53;;;;;;;7.75;2.17;;;;;;;12.24;65.60;100848.59;1859077;77;20870;-91
2022/05/16 03:28:20;;;;;;;4.85;2.42;;;;;;;12.27;65.08;100848.39;1827831;77;21236;-91
2022/05/16 03:30:47;;;;;;;5.12;2.17;;;;;;;12.30;65.11;100845.59;1858649;76;20921;-90
2022/05/16 03:33:15;;;;;;;4.87;2.10;;;;;;;12.34;64.83;100848.84;1858611;77;20945;-90
2022/05/16 03:35:42;;;;;;;2.33;1.82;;;;;;;12.37;64.76;100848.19;1859341;77;20917;-89
2022/05/16 03:40:41;;;;;;;6.72;2.12;;;;;;;12.40;64.66;100851.09;1859519;77;21430;-91
2022/05/16 03:40:42;;;;;;;6.17;2.30;;;;;;;12.41;64.41;100857.58;1854501;77;21122;-91
2022/05/16 03:43:15;;;;;;;3.85;1.82;;;;;;;12.43;64.34;100859.64;1858607;77;20870;-89
2022/05/16 03:45:41;;;;;;;4.80;1.60;;;;;;;12.44;64.25;100856.05;1858412;76;20877;-89
2022/05/16 03:48:08;;;;;;;3.00;1.77;;;;;;;12.47;64.10;100855.01;1858717;77;21387;-91
2022/05/16 03:50:35;;;;;;;3.95;1.87;;;;;;;12.50;64.19;100859.26;1859034;77;20941;-87
2022/05/16 03:53:03;;;;;;;2.77;1.25;;;;;;;12.52;64.13;100858.21;1859509;77;21231;-89
2022/05/16 03:55:30;;;;;;;5.35;1.60;;;;;;;12.57;63.93;100861.38;1859197;77;20866;-90
2022/05/16 03:57:57;;;;;;;2.85;1.70;;;;;;;12.61;64.10;100861.56;1858585;77;21437;-89
2022/05/16 04:00:24;;;;;;;4.45;2.10;;;;;;;12.67;64.00;100858.98;1858716;76;21791;-91
2022/05/16 04:02:53;;;;;;;3.22;1.50;;;;;;;12.74;63.83;100864.69;1859047;77;20909;-89
2022/05/16 04:05:24;;;;;;;3.98;1.37;;;;;;;12.84;63.97;100867.95;1859016;77;21092;-90
2022/05/16 04:07:51;;;;;;;2.47;1.10;;;;;;;12.94;63.72;100864.70;1858805;77;20862;-89
2022/05/16 04:10:20;;;;;;;3.17;1.40;;;;;;;13.02;62.99;100869.84;1858379;77;20905;-89
2022/05/16 04:12:46;;;;;;;3.05;1.30;;;;;;;13.10;62.58;100857.98;1858435;77;20881;-90
2022/05/16 04:15:13;;;;;;;5.58;1.40;;;;;;;13.25;61.99;100872.72;1859327;77;20897;-91
2022/05/16 04:17:41;;;;;;;1.67;1.15;;;;;;;13.60;61.43;100864.25;1859044;77;21769;-90
2022/05/16 04:20:13;;;;;;;3.15;1.85;;;;;;;14.83;58.81;100870.03;1858324;76;20917;-90
2022/05/16 04:22:42;;;;;;;1.65;0.80;;;;;;;15.50;56.54;100865.45;1858434;77;20853;-90
2022/05/16 04:25:11;;;;;;;5.47;0.98;;;;;;;15.50;56.54;100865.45;1858834;77;20964;-90
2022/05/16 04:27:38;;;;;;;1.82;0.90;;;;;;;16.19;55.49;100868.51;1858438;77;21435;-91
2022/05/16 04:30:07;;;;;;;1.82;1.22;;;;;;;16.89;53.91;100869.90;1858334;76;21231;-92
2022/05/16 04:32:34;;;;;;;1.65;0.85;;;;;;;17.52;51.79;100869.91;1858237;77;20897;-91
2022/05/16 04:35:01;;;;;;;2.45;0.80;;;;;;;18.05;49.74;100868.94;1858340;76;20869;-90
2022/05/16 04:37:32;;;;;;;6.40;1.32;;;;;;;18.51;49.05;100868.35;1858834;77;20933;-93
2022/05/16 04:40:00;;;;;;;1.40;0.78;;;;;;;18.99;47.50;100872.89;1858645;77;21371;-92
2022/05/16 04:42:42;;;;;;;1.65;0.68;;;;;;;19.47;46.72;100868.48;1859472;76;21226;-87
2022/05/16 04:45:19;;;;;;;2.95;0.98;;;;;;;19.84;45.07;100868.53;1860531;77;20933;-88
2022/05/16 04:47:49;;;;;;;5.35;1.02;;;;;;;20.02;43.74;100877.91;1859263;77;20984;-91
2022/05/16 04:50:19;;;;;;;1.15;0.70;;;;;;;20.24;43.69;100882.02;1858648;77;20956;-92
2022/05/16 04:52:46;;;;;;;2.12;1.10;;;;;;;20.57;42.82;100886.91;1859292;77;20928;-91
2022/05/16 04:55:13;;;;;;;2.85;1.00;;;;;;;20.94;42.10;100879.25;1858517;76;21814;-92
2022/05/16 04:57:40;;;;;;;0.80;0.75;;;;;;;21.29;41.06;100881.87;1858407;77;20878;-92
2022/05/16 05:00:08;;;;;;;2.08;0.95;;;;;;;21.63;40.17;100879.81;1858886;77;20921;-92
2022/05/16 05:02:37;;;;;;;3.85;0.98;;;;;;;21.87;39.54;100882.26;1858912;77;21362;-91
2022/05/16 05:05:05;;;;;;;1.72;1.55;;;;;;;22.21;39.39;100894.27;1858850;77;20983;-92
2022/05/16 05:07:32;;;;;;;1.90;1.35;;;;;;;22.56;39.09;100883.03;1858618;77;22137;-91
2022/05/16 05:15:32;;;;;;;1.87;1.07;;;;;;;23.40;36.54;100889.62;1858525;77;20908;-91
2022/05/16 05:17:59;;;;;;;3.75;1.02;;;;;;;23.58;35.65;100892.42;1858497;77;21477;-92
2022/05/16 05:20:26;;;;;;;1.25;0.60;;;;;;;23.76;35.97;100890.91;1858958;76;21266;-92
2022/05/16 05:22:53;;;;;;;1.47;0.65;;;;;;;23.93;34.96;100894.37;1860422;77;21315;-92
2022/05/16 05:25:23;;;;;;;2.08;0.82;;;;;;;24.09;34.88;100898.01;1858860;77;20917;-91
2022/05/16 05:27:50;;;;;;;1.57;0.50;;;;;;;24.28;35.02;100891.37;1860617;77;20853;-89
2022/05/16 05:30:21;;;;;;;2.33;0.55;;;;;;;24.48;34.28;100894.48;1861776;75;21077;-90
2022/05/16 05:32:48;;;;;;;1.87;0.70;;;;;;;24.68;33.93;100895.72;1861941;77;21203;-92
2022/05/16 05:35:15;;;;;;;4.35;0.53;;;;;;;24.77;32.45;100897.33;1861628;75;20920;-91
2022/05/16 05:37:42;;;;;;;1.40;0.33;;;;;;;24.85;31.37;100891.58;1861559;75;20925;-91
2022/05/16 05:40:09;;;;;;;0.65;0.30;;;;;;;24.91;32.40;100892.20;1861608;77;20913;-92
2022/05/16 05:42:36;;;;;;;2.72;0.88;;;;;;;24.97;31.64;100895.52;1861403;76;20976;-94
2022/05/16 05:45:06;;;;;;;1.72;0.40;;;;;;;24.98;31.12;100888.61;1861288;77;21279;-93
2022/05/16 05:47:33;;;;;;;1.87;0.50;;;;;;;24.99;30.84;100889.44;1861203;77;20897;-93
2022/05/16 05:50:01;;;;;;;1.20;0.45;;;;;;;25.03;30.79;100894.77;1861686;75;20874;-91
2022/05/16 05:52:28;;;;;;;0.95;0.60;;;;;;;25.29;31.19;100900.30;1860542;76;20936;-92
2022/05/16 05:54:56;;;;;;;2.10;0.75;;;;;;;25.55;30.30;100902.58;1859961;77;20904;-91
2022/05/16 05:57:25;;;;;;;6.65;0.50;;;;;;;25.77;30.07;100900.84;1859212;77;21406;-91
2022/05/16 05:59:57;;;;;;;1.12;0.55;;;;;;;25.90;28.93;100901.55;1858430;77;21327;-90
2022/05/16 06:02:30;;;;;;;1.07;0.40;;;;;;;26.03;29.33;100899.03;1825000;77;20960;-90
2022/05/16 06:04:59;;;;;;;1.67;0.72;;;;;;;26.07;28.77;100901.67;1858614;77;21194;-90
2022/05/16 06:07:29;;;;;;;0.90;0.30;;;;;;;26.17;27.96;100899.55;1853669;77;21359;-92
2022/05/16 06:10:00;;;;;;;2.58;0.35;;;;;;;26.32;27.97;100904.05;1859047;77;20877;-92
2022/05/16 06:12:30;;;;;;;1.25;0.75;;;;;;;26.49;28.65;100902.80;1858042;77;20889;-91
2022/05/16 06:14:56;;;;;;;3.58;0.53;;;;;;;26.66;27.96;100911.52;1859301;76;20910;-90
2022/05/16 06:17:23;;;;;;;3.10;0.40;;;;;;;26.77;27.76;100906.98;1859055;77;20893;-91
2022/05/16 06:19:51;;;;;;;0.23;0.23;;;;;;;26.93;27.89;100913.13;1861393;77;20869;-91
2022/05/16 06:22:18;;;;;;;0.50;0.33;;;;;;;27.12;27.38;100911.11;1862168;77;21195;-91
2022/05/16 06:25:34;;;;;;;1.20;0.40;;;;;;;27.23;27.40;100905.75;1862937;77;20968;-91
2022/05/16 06:27:17;;;;;;;0.65;0.42;;;;;;;27.42;27.69;100916.38;1843553;77;20929;-87
2022/05/16 06:29:46;;;;;;;0.68;0.30;;;;;;;27.62;27.29;100909.27;1864001;77;20991;-92
2022/05/16 06:33:16;;;;;;;1.37;0.30;;;;;;;27.89;26.40;100908.10;1885971;75;22475;-90
2022/05/16 06:35:50;;;;;;;2.10;0.30;;;;;;;28.01;26.40;100901.63;1862433;77;20899;-90
2022/05/16 06:38:26;;;;;;;3.83;0.42;;;;;;;27.97;24.98;100908.44;1825314;77;20950;-91
2022/05/16 06:40:55;;;;;;;1.95;0.30;;;;;;;27.81;25.31;100911.74;1862002;77;20871;-91
2022/05/16 06:43:24;;;;;;;1.70;0.50;;;;;;;27.83;25.34;100909.69;1862218;76;20911;-92
2022/05/16 06:45:52;;;;;;;1.55;0.70;;;;;;;27.93;25.28;100907.20;1859330;76;20887;-89
2022/05/16 06:48:20;;;;;;;1.50;0.50;;;;;;;27.98;26.00;100908.25;1863244;77;20879;-89
2022/05/16 06:50:47;;;;;;;2.02;0.40;;;;;;;28.23;26.24;100903.69;1862281;77;21206;-90
2022/05/16 06:53:20;;;;;;;1.00;0.20;;;;;;;28.39;25.57;100902.01;1861785;77;20875;-90
2022/05/16 06:55:47;;;;;;;0.95;0.40;;;;;;;28.50;25.75;100904.14;1861871;77;24920;-89
2022/05/16 06:58:16;;;;;;;1.82;0.23;;;;;;;28.53;25.11;100907.47;1861872;76;20952;-89
2022/05/16 07:00:42;;;;;;;1.82;0.25;;;;;;;28.57;25.21;100916.80;1861627;77;20962;-90
2022/05/16 07:03:11;;;;;;;0.50;0.30;;;;;;;28.62;24.62;100905.72;1861226;76;21270;-91
2022/05/16 07:05:48;;;;;;;1.25;0.40;;;;;;;28.68;24.04;100914.36;1861332;76;20956;-89
2022/05/16 07:08:11;;;;;;;3.47;0.60;;;;;;;28.73;24.81;100915.92;1857636;77;20915;-87
2022/05/16 07:10:38;;;;;;;2.37;0.37;;;;;;;28.78;24.40;100911.78;1862104;76;20903;-89
2022/05/16 07:13:08;;;;;;;1.60;0.30;;;;;;;28.81;24.41;100914.87;1830084;77;20875;-89
2022/05/16 07:15:35;;;;;;;2.10;0.15;;;;;;;28.90;24.36;100920.42;1861742;77;21155;-89
2022/05/16 07:18:03;;;;;;;2.85;0.95;;;;;;;29.08;24.59;100920.31;1862627;77;20871;-89
2022/05/16 07:20:31;;;;;;;0.60;0.33;;;;;;;29.21;24.15;100923.57;1862014;76;20903;-89
2022/05/16 07:22:59;;;;;;;1.62;0.30;;;;;;;29.29;24.35;100917.97;1861625;76;20910;-90
2022/05/16 07:25:27;;;;;;;1.70;0.30;;;;;;;29.34;23.50;100927.09;1861765;77;20918;-89
2022/05/16 07:28:01;;;;;;;2.58;0.20;;;;;;;29.53;23.83;100909.74;1861827;77;21314;-90
2022/05/16 07:30:33;;;;;;;0.62;0.20;;;;;;;29.72;22.68;100915.64;1861886;77;20914;-90
2022/05/16 07:33:01;;;;;;;;;;;;;;;29.86;23.30;100921.87;1857564;77;20983;-86
2022/05/16 07:35:31;;;;;;;4.58;1.07;;;;;;;29.96;23.46;100920.89;1852847;77;20072;-88
2022/05/16 07:37:58;;;;;;;6.10;5.58;;;;;;;29.89;22.73;100920.09;1851816;77;21420;-89
2022/05/16 07:40:29;;;;;;;6.87;6.22;;;;;;;29.86;22.27;100921.02;1851319;77;21080;-88
2022/05/16 07:42:56;;;;;;;1.00;0.30;;;;;;;29.68;21.91;100917.13;1851036;77;20862;-88
2022/05/16 07:45:23;;;;;;;1.72;0.65;;;;;;;29.68;22.22;100927.06;1850247;77;20917;-91
2022/05/16 07:47:51;;;;;;;1.92;0.35;;;;;;;29.81;22.25;100928.95;1850916;77;21406;-89
2022/05/16 07:50:18;;;;;;;2.27;0.47;;;;;;;29.92;22.08;100926.41;1851476;77;20964;-90
2022/05/16 07:52:49;;;;;;;26.55;23.87;;;;;;;29.98;21.46;100927.45;1851468;77;21307;-90
2022/05/16 07:55:18;;;;;;;3.77;1.00;;;;;;;30.05;21.51;100934.19;1850933;77;21537;-91
2022/05/16 07:57:45;;;;;;;1.77;0.50;;;;;;;30.02;21.03;100935.45;1851038;77;20909;-92
2022/05/16 08:00:12;;;;;;;1.90;0.17;;;;;;;30.18;21.57;100923.85;1851396;77;20921;-90
2022/05/16 08:02:39;;;;;;;4.62;2.10;;;;;;;30.21;20.70;100915.30;1852846;77;21019;-89
2022/05/16 08:05:09;;;;;;;1.42;0.33;;;;;;;29.94;21.42;100923.50;1852663;77;21164;-88
2022/05/16 08:10:29;;;;;;;3.42;0.30;;;;;;;29.62;21.23;100920.64;1826803;77;20889;-88
2022/05/16 08:12:53;;;;;;;0.88;0.40;;;;;;;29.03;21.52;100922.81;1850604;76;20834;-91
2022/05/16 08:15:21;;;;;;;0.42;0.10;;;;;;;29.00;22.35;100924.59;1850144;77;20905;-88
2022/05/16 08:17:48;;;;;;;2.77;0.30;;;;;;;28.67;22.64;100924.83;1849735;77;21075;-89
2022/05/16 08:20:15;;;;;;;0.37;0.15;;;;;;;28.26;23.01;100924.36;1849632;77;21343;-91
2022/05/16 08:22:42;;;;;;;2.55;0.10;;;;;;;27.84;23.54;100930.76;1849744;76;21357;-90
2022/05/16 08:25:09;;;;;;;1.35;0.30;;;;;;;27.71;24.01;100926.11;1849900;77;20921;-89
2022/05/16 08:27:36;;;;;;;0.98;0.30;;;;;;;27.59;23.24;100921.79;1850105;77;20862;-90
2022/05/16 08:30:04;;;;;;;1.05;0.20;;;;;;;27.62;23.14;100928.64;1849931;76;21062;-89
2022/05/16 08:32:34;;;;;;;0.93;0.20;;;;;;;27.67;23.80;100922.97;1854923;75;21404;-91
2022/05/16 08:35:04;;;;;;;1.87;0.20;;;;;;;27.62;24.13;100920.56;1860441;77;20950;-91
2022/05/16 08:40:17;;;;;;;2.08;0.37;;;;;;;27.66;24.56;100929.40;1860499;77;20824;-87
2022/05/16 08:43:02;;;;;;;4.10;0.50;;;;;;;27.55;24.97;100922.38;1777110;77;21292;-92
2022/05/16 08:45:39;;;;;;;2.25;0.42;;;;;;;27.31;25.08;100924.47;1861178;76;20939;-91
2022/05/16 08:48:36;;;;;;;2.95;0.60;;;;;;;27.08;25.53;100921.45;1860839;77;21016;-91
2022/05/16 08:51:17;;;;;;;2.20;0.33;;;;;;;26.74;26.86;100928.04;1861544;77;20859;-91
2022/05/16 08:54:06;;;;;;;0.55;0.30;;;;;;;26.34;25.77;100927.03;1860786;76;20914;-90
2022/05/16 08:56:35;;;;;;;0.98;0.50;;;;;;;26.36;25.75;100923.65;1860784;77;21941;-94
2022/05/16 08:59:05;;;;;;;1.10;0.40;;;;;;;26.38;26.99;100916.23;1860927;77;21408;-91
2022/05/16 09:01:50;;;;;;;1.50;0.55;;;;;;;26.26;26.04;100919.92;1861315;77;20919;-89
2022/05/16 09:04:34;;;;;;;1.25;0.40;;;;;;;26.03;26.58;100929.45;1861359;77;20879;-91
2022/05/16 09:07:02;;;;;;;2.62;0.60;;;;;;;25.78;26.68;100921.30;1843702;77;20974;-91
2022/05/16 09:09:38;;;;;;;2.10;0.42;;;;;;;25.83;27.71;100916.20;1860838;77;21193;-91
2022/05/16 09:12:19;;;;;;;2.12;0.20;;;;;;;26.07;27.34;100912.43;1860777;76;21191;-91
2022/05/16 09:15:14;;;;;;;2.15;0.23;;;;;;;26.46;26.81;100909.92;1860973;77;20969;-92
2022/05/16 09:18:19;;;;;;;3.15;0.35;;;;;;;26.64;27.42;100917.08;1860443;77;20914;-92
2022/05/16 09:21:09;;;;;;;5.37;0.80;;;;;;;26.74;26.15;100922.66;1860825;77;20911;-91
2022/05/16 09:24:14;;;;;;;0.40;0.15;;;;;;;26.71;26.72;100919.84;1860529;77;21085;-89
2022/05/16 09:27:06;;;;;;;1.67;0.28;;;;;;;26.94;24.98;100916.95;1860987;77;21428;-92
2022/05/16 09:29:39;;;;;;;1.22;0.25;;;;;;;27.24;24.52;100908.27;1861022;76;21455;-90
2022/05/16 09:32:21;;;;;;;0.95;0.23;;;;;;;27.52;24.54;100906.59;1858916;77;20973;-92
2022/05/16 09:34:49;;;;;;;2.30;0.60;;;;;;;27.61;24.15;100919.70;1849640;77;20933;-92
2022/05/16 09:37:16;;;;;;;1.47;0.40;;;;;;;27.40;24.84;100917.09;1850393;77;21596;-90
2022/05/16 09:39:44;;;;;;;27.37;24.52;;;;;;;27.02;26.06;100916.84;1849983;77;20905;-91
2022/05/16 09:42:21;;;;;;;3.90;3.60;;;;;;;26.82;25.35;100908.57;1850008;77;21018;-92
2022/05/16 09:45:04;;;;;;;3.08;0.88;;;;;;;26.84;26.08;100909.22;1850125;77;20986;-91
2022/05/16 09:47:37;;;;;;;1.77;0.30;;;;;;;26.93;25.18;100911.27;1849771;76;20861;-92
2022/05/16 09:50:24;;;;;;;1.32;0.30;;;;;;;26.82;26.05;100903.19;1850849;76;21124;-91
2022/05/16 09:53:13;;;;;;;1.40;0.40;;;;;;;26.80;26.65;100916.00;1824613;77;21058;-90
2022/05/16 09:55:51;;;;;;;2.50;0.95;;;;;;;27.02;25.82;100905.24;1851751;77;20948;-88
2022/05/16 09:58:24;;;;;;;3.60;1.15;;;;;;;27.08;25.80;100906.65;1851618;77;20956;-90
2022/05/16 10:01:04;;;;;;;2.23;0.90;;;;;;;26.96;25.62;100904.14;1851478;77;20936;-91
2022/05/16 10:03:45;;;;;;;1.12;0.47;;;;;;;26.75;26.23;100906.85;1850299;77;21139;-92
2022/05/16 10:06:29;;;;;;;2.90;0.72;;;;;;;26.40;26.44;100906.12;1850220;77;20870;-93
2022/05/16 10:09:05;;;;;;;1.55;0.93;;;;;;;26.23;27.51;100900.14;1849106;77;20834;-92
2022/05/16 10:11:37;;;;;;;2.92;0.75;;;;;;;26.02;28.03;100900.07;1849909;76;20988;-91
2022/05/16 10:14:04;;;;;;;0.88;0.40;;;;;;;25.78;27.16;100893.09;1850100;76;20873;-93
2022/05/16 10:16:31;;;;;;;0.78;0.40;;;;;;;25.61;26.52;100895.97;1850175;77;21042;-92
2022/05/16 10:19:04;;;;;;;1.10;0.80;;;;;;;25.70;27.54;100887.31;1849747;77;20846;-91
2022/05/16 10:21:36;;;;;;;3.70;0.60;;;;;;;25.96;28.14;100888.72;1801455;77;20917;-93
2022/05/16 10:24:07;;;;;;;2.77;0.40;;;;;;;26.08;27.81;100884.55;1850375;77;21036;-91
2022/05/16 10:26:39;;;;;;;3.05;0.20;;;;;;;26.06;27.34;100889.27;1850085;77;20885;-92
2022/05/16 10:29:20;;;;;;;4.15;0.57;;;;;;;26.03;25.96;100886.94;1850426;77;21245;-92
2022/05/16 10:34:44;;;;;;;4.17;0.30;;;;;;;26.35;26.54;100881.66;1849789;77;21035;-92
2022/05/16 10:37:14;;;;;;;0.50;0.23;;;;;;;26.67;26.46;100876.85;1824260;77;21452;-92
2022/05/16 10:39:44;;;;;;;2.08;0.50;;;;;;;27.06;26.34;100876.39;1849598;76;21466;-91
2022/05/16 10:42:21;;;;;;;0.30;0.20;;;;;;;27.29;26.48;100874.01;1849802;77;21029;-90
2022/05/16 10:45:10;;;;;;;0.40;0.20;;;;;;;27.34;25.60;100872.07;1849779;77;20866;-90
2022/05/16 10:47:47;;;;;;;0.85;0.30;;;;;;;27.08;25.06;100879.73;1849518;77;20885;-90
2022/05/16 10:50:31;;;;;;;0.57;0.25;;;;;;;26.79;24.65;100873.12;1850061;77;20897;-91
2022/05/16 10:53:05;;;;;;;1.00;0.55;;;;;;;26.66;25.35;100871.98;1849686;77;20896;-91
2022/05/16 10:56:05;;;;;;;0.33;0.30;;;;;;;26.76;24.93;100871.66;1849949;77;23519;-91
2022/05/16 10:59:04;;;;;;;1.47;0.30;;;;;;;26.96;24.61;100872.36;1850050;76;20913;-89
2022/05/16 11:01:48;;;;;;;2.87;0.20;;;;;;;27.19;25.11;100881.55;1849924;77;20964;-92
2022/05/16 11:04:38;;;;;;;2.98;0.40;;;;;;;27.36;22.05;100872.19;1849873;77;21347;-92
2022/05/16 11:07:31;;;;;;;14.15;10.68;;;;;;;27.50;21.98;100870.41;1848013;77;20987;-91
2022/05/16 11:10:27;;;;;;;2.50;1.27;;;;;;;27.65;21.12;100866.27;1850116;77;21225;-91
2022/05/16 11:13:25;;;;;;;3.05;2.60;;;;;;;27.78;20.48;100874.95;1849724;77;20905;-89
2022/05/16 11:16:16;;;;;;;0.30;0.20;;;;;;;27.69;20.02;100864.31;1849686;76;20894;-91
2022/05/16 11:19:25;;;;;;;2.27;0.33;;;;;;;27.62;20.73;100863.97;1849862;77;20913;-92
2022/05/16 11:22:15;;;;;;;0.68;0.33;;;;;;;27.64;21.12;100869.48;1846690;77;20909;-91
2022/05/16 11:24:54;;;;;;;1.12;0.23;;;;;;;27.63;22.15;100862.93;1850480;77;21321;-89
2022/05/16 11:27:58;;;;;;;0.30;0.23;;;;;;;27.58;21.77;100874.30;1850108;77;20921;-91
2022/05/16 11:30:42;;;;;;;2.72;0.28;;;;;;;27.26;21.81;100871.72;1850471;77;20833;-91
2022/05/16 11:33:37;;;;;;;2.33;0.53;;;;;;;26.84;22.15;100863.46;1845063;76;20956;-91
2022/05/16 11:36:41;;;;;;;0.80;0.30;;;;;;;26.58;23.93;100860.00;1836225;77;20997;-91
2022/05/16 11:39:19;;;;;;;6.87;0.50;;;;;;;26.40;24.49;100852.85;1836737;76;21397;-92
2022/05/16 11:42:33;;;;;;;0.45;0.10;;;;;;;26.23;24.55;100855.78;1834881;76;21357;-95
2022/05/16 11:45:24;;;;;;;3.80;0.60;;;;;;;26.15;23.72;100845.12;1835790;77;21008;-92
2022/05/16 11:48:40;;;;;;;2.47;0.33;;;;;;;25.91;23.57;100854.34;1775952;80;20958;-92
2022/05/16 11:51:28;;;;;;;3.10;0.45;;;;;;;25.69;24.60;100856.08;1775334;80;20934;-92
2022/05/16 11:53:58;;;;;;;2.72;0.50;;;;;;;25.34;24.80;100858.97;1775402;80;21189;-94
2022/05/16 12:02:33;;;;;;;4.75;1.17;;;;;;;24.81;24.44;100845.48;1776323;79;20939;-92
2022/05/16 12:05:25;;;;;;;1.47;0.42;;;;;;;24.57;24.26;100844.67;1776534;80;20963;-92
2022/05/16 12:08:25;;;;;;;0.75;0.55;;;;;;;24.28;24.44;100838.62;1776115;80;20934;-93
2022/05/16 12:11:10;;;;;;;1.85;0.50;;;;;;;24.05;24.78;100834.55;1776128;80;21101;-92
2022/05/16 12:13:59;;;;;;;1.27;0.45;;;;;;;23.95;25.40;100844.14;1776360;80;20899;-92
2022/05/16 12:16:42;;;;;;;0.70;0.30;;;;;;;23.93;25.61;100834.62;1654202;84;20901;-93
2022/05/16 12:19:30;;;;;;;3.17;0.40;;;;;;;23.94;25.77;100836.27;1651830;85;20861;-89